createdAt,value
2022-08-20T00:03:55.066Z,18.02
2022-08-20T00:09:00.200Z,17.99
2022-08-20T00:14:07.220Z,17.84
2022-08-20T00:19:11.312Z,17.43
2022-08-20T00:24:16.176Z,17.42
2022-08-20T00:29:20.281Z,17.39
2022-08-20T00:34:24.241Z,17.65
2022-08-20T00:39:29.504Z,17.40
2022-08-20T00:44:33.288Z,17.66
2022-08-20T00:49:36.915Z,17.69
2022-08-20T00:54:46.064Z,17.66
2022-08-20T00:59:51.295Z,17.32
2022-08-20T01:04:56.114Z,17.31
2022-08-20T01:10:02.564Z,17.27
2022-08-20T01:15:11.457Z,17.36
2022-08-20T01:20:18.242Z,17.46
2022-08-20T01:25:31.034Z,17.34
2022-08-20T01:30:37.325Z,17.40
2022-08-20T01:35:43.499Z,17.30
2022-08-20T01:41:09.787Z,17.10
2022-08-20T01:46:15.915Z,17.20
2022-08-20T01:51:24.658Z,17.49
2022-08-20T01:56:30.940Z,17.36
2022-08-20T02:01:45.877Z,17.27
2022-08-20T02:06:56.487Z,17.36
2022-08-20T02:12:03.131Z,17.31
2022-08-20T02:17:08.124Z,17.33
2022-08-20T02:22:18.369Z,17.22
2022-08-20T02:27:23.937Z,17.05
2022-08-20T02:32:34.176Z,17.42
2022-08-20T02:37:39.241Z,17.36
2022-08-20T02:42:43.412Z,17.16
2022-08-20T02:47:51.129Z,17.04
2022-08-20T02:52:55.044Z,16.92
2022-08-20T02:58:00.363Z,16.71
2022-08-20T03:03:05.645Z,16.87
2022-08-20T03:08:10.910Z,16.75
2022-08-20T03:13:15.993Z,16.45
2022-08-20T03:18:23.061Z,16.49
2022-08-20T03:23:26.613Z,16.34
2022-08-20T03:28:30.260Z,15.91
2022-08-20T03:33:35.240Z,16.15
2022-08-20T03:38:38.737Z,15.98
2022-08-20T03:43:42.233Z,15.92
2022-08-20T03:48:47.216Z,15.74
2022-08-20T03:53:52.673Z,15.55
2022-08-20T03:58:57.045Z,15.52
2022-08-20T04:04:02.115Z,15.33
2022-08-20T04:09:06.279Z,15.60
2022-08-20T04:14:11.398Z,15.26
2022-08-20T04:19:22.530Z,15.37
2022-08-20T04:24:32.184Z,15.11
2022-08-20T04:29:37.830Z,15.29
2022-08-20T04:34:44.578Z,15.08
2022-08-20T04:40:05.725Z,15.07
2022-08-20T04:45:10.042Z,15.06
2022-08-20T04:50:15.778Z,14.86
2022-08-20T04:55:19.536Z,15.03
2022-08-20T05:00:23.178Z,15.10
2022-08-20T05:05:28.190Z,15.39
2022-08-20T05:10:32.256Z,15.43
2022-08-20T05:15:36.912Z,15.39
2022-08-20T05:20:43.479Z,15.65
2022-08-20T05:25:51.525Z,15.48
2022-08-20T05:30:55.190Z,15.71
2022-08-20T05:36:00.226Z,15.59
2022-08-20T05:41:04.856Z,15.49
2022-08-20T05:46:08.544Z,15.49
2022-08-20T05:51:15.292Z,15.58
2022-08-20T05:56:18.960Z,16.32
2022-08-20T06:01:25.378Z,16.30
2022-08-20T06:06:44.671Z,16.40
2022-08-20T06:11:50.161Z,16.79
2022-08-20T06:16:58.014Z,16.93
2022-08-20T06:22:18.411Z,17.19
2022-08-20T06:27:26.316Z,17.69
2022-08-20T06:32:32.593Z,17.69
2022-08-20T06:37:39.874Z,18.02
2022-08-20T06:42:48.607Z,18.54
2022-08-20T06:47:54.514Z,19.24
2022-08-20T06:53:00.284Z,19.67
2022-08-20T06:58:06.748Z,19.85
2022-08-20T07:03:19.313Z,20.31
2022-08-20T07:08:24.442Z,20.90
2022-08-20T07:13:28.839Z,21.51
2022-08-20T07:18:33.216Z,21.51
2022-08-20T07:23:38.489Z,21.85
2022-08-20T07:28:42.280Z,22.07
2022-08-20T07:33:46.131Z,22.09
2022-08-20T07:38:52.650Z,22.79
2022-08-20T07:43:56.636Z,22.68
2022-08-20T07:49:00.765Z,23.09
2022-08-20T07:54:06.290Z,23.03
2022-08-20T07:59:10.122Z,23.03
2022-08-20T08:04:13.865Z,23.22
2022-08-20T08:09:19.375Z,23.61
2022-08-20T08:14:27.046Z,23.14
2022-08-20T08:19:37.981Z,22.84
2022-08-20T08:24:47.841Z,23.24
2022-08-20T08:30:01.257Z,23.38
2022-08-20T08:35:06.355Z,22.93
2022-08-20T08:40:12.331Z,23.45
2022-08-20T08:45:17.774Z,23.14
2022-08-20T08:50:50.036Z,23.00
2022-08-20T08:55:50.977Z,22.94
2022-08-20T09:00:56.477Z,22.87
2022-08-20T09:06:05.539Z,23.20
2022-08-20T09:11:10.557Z,23.51
2022-08-20T09:16:15.427Z,23.23
2022-08-20T09:21:19.905Z,23.22
2022-08-20T09:26:25.760Z,23.47
2022-08-20T09:31:33.071Z,23.49
2022-08-20T09:36:36.830Z,23.21
2022-08-20T09:41:41.930Z,23.29
2022-08-20T09:46:45.658Z,23.82
2022-08-20T09:51:49.498Z,24.17
2022-08-20T09:56:54.729Z,23.90
2022-08-20T10:01:58.563Z,23.08
2022-08-20T10:07:02.264Z,23.22
2022-08-20T10:12:08.082Z,23.35
2022-08-20T10:17:12.044Z,22.96
2022-08-20T10:22:15.699Z,23.20
2022-08-20T10:27:20.726Z,23.11
2022-08-20T10:32:24.524Z,22.94
2022-08-20T10:37:28.266Z,22.92
2022-08-20T10:42:33.542Z,23.07
2022-08-20T10:47:37.237Z,22.88
2022-08-20T10:52:41.077Z,23.03
2022-08-20T10:57:46.496Z,22.90
2022-08-20T11:02:50.863Z,22.75
2022-08-20T11:07:56.722Z,23.05
2022-08-20T11:13:08.791Z,23.42
2022-08-20T11:18:14.519Z,23.63
2022-08-20T11:23:18.121Z,23.64
2022-08-20T11:28:31.742Z,23.92
2022-08-20T11:33:35.825Z,24.53
2022-08-20T11:38:39.518Z,25.33
2022-08-20T11:43:59.539Z,25.13
2022-08-20T11:49:08.359Z,24.60
2022-08-20T11:54:11.867Z,24.62
2022-08-20T11:59:17.509Z,25.01
2022-08-20T12:04:21.080Z,25.31
2022-08-20T12:09:29.130Z,25.29
2022-08-20T12:14:34.505Z,25.76
2022-08-20T12:19:39.665Z,26.20
2022-08-20T12:24:43.504Z,26.86
2022-08-20T12:29:53.218Z,26.47
2022-08-20T12:34:58.046Z,26.25
2022-08-20T12:40:03.833Z,26.15
2022-08-20T12:45:10.294Z,25.49
2022-08-20T12:50:18.263Z,25.67
2022-08-20T12:55:22.189Z,25.46
2022-08-20T13:00:30.179Z,25.19
2022-08-20T13:05:35.542Z,25.01
2022-08-20T13:10:44.548Z,24.92
2022-08-20T13:15:51.471Z,24.67
2022-08-20T13:20:55.125Z,25.37
2022-08-20T13:25:58.702Z,25.88
2022-08-20T13:31:03.753Z,26.09
2022-08-20T13:36:07.940Z,25.77
2022-08-20T13:41:11.697Z,25.87
2022-08-20T13:46:16.853Z,25.60
2022-08-20T13:51:21.694Z,25.17
2022-08-20T13:56:25.432Z,25.22
2022-08-20T14:01:31.196Z,24.43
2022-08-20T14:06:35.054Z,25.09
2022-08-20T14:11:38.823Z,25.52
2022-08-20T14:16:43.837Z,25.74
2022-08-20T14:21:48.051Z,25.38
2022-08-20T14:26:51.583Z,25.29
2022-08-20T14:31:56.333Z,24.65
2022-08-20T14:37:12.095Z,24.63
2022-08-20T14:42:16.279Z,24.58
2022-08-20T14:47:23.429Z,24.12
2022-08-20T14:52:28.106Z,23.44
2022-08-20T14:57:31.933Z,23.29
2022-08-20T15:02:37.310Z,23.02
2022-08-20T15:07:43.193Z,22.45
2022-08-20T15:12:47.009Z,22.17
2022-08-20T15:17:54.926Z,22.18
2022-08-20T15:22:58.727Z,21.59
2022-08-20T15:28:04.604Z,20.97
2022-08-20T15:33:10.577Z,21.55
2022-08-20T15:38:14.299Z,21.81
2022-08-20T15:43:17.880Z,21.69
2022-08-20T15:48:31.884Z,21.69
2022-08-20T15:53:44.130Z,21.33
2022-08-20T15:58:55.125Z,21.37
2022-08-20T16:04:29.621Z,21.27
2022-08-20T16:09:47.832Z,20.91
2022-08-20T16:14:58.626Z,20.60
2022-08-20T16:20:11.449Z,20.04
2022-08-20T16:25:17.479Z,19.61
2022-08-20T16:30:31.649Z,20.02
2022-08-20T16:35:42.872Z,20.03
2022-08-20T16:40:49.985Z,20.04
2022-08-20T16:46:00.338Z,19.94
2022-08-20T16:51:11.709Z,19.92
2022-08-20T16:56:15.545Z,19.80
2022-08-20T17:01:27.435Z,19.93
2022-08-20T17:06:38.111Z,19.97
2022-08-20T17:12:17.026Z,19.97
2022-08-20T17:17:24.168Z,20.31
2022-08-20T17:22:32.615Z,20.53
2022-08-20T17:27:39.738Z,20.51
2022-08-20T17:32:57.318Z,20.55
2022-08-20T17:38:04.212Z,19.93
2022-08-20T17:43:10.104Z,19.93
2022-08-20T17:48:19.316Z,19.50
2022-08-20T17:53:28.576Z,19.45
2022-08-20T17:58:38.354Z,19.55
2022-08-20T18:03:42.381Z,19.13
2022-08-20T18:08:56.974Z,18.98
2022-08-20T18:14:17.895Z,19.28
2022-08-20T18:19:36.786Z,18.83
2022-08-20T18:24:50.563Z,18.71
2022-08-20T18:30:01.415Z,18.65
2022-08-20T18:35:12.135Z,18.97
2022-08-20T18:40:27.888Z,18.41
2022-08-20T18:45:35.010Z,18.28
2022-08-20T18:50:48.213Z,18.30
2022-08-20T18:56:05.949Z,18.33
2022-08-20T19:01:14.682Z,18.40
2022-08-20T19:06:32.251Z,18.09
2022-08-20T19:12:06.120Z,17.84
2022-08-20T19:17:16.252Z,17.83
2022-08-20T19:22:22.193Z,17.72
2022-08-20T19:27:30.646Z,17.67
2022-08-20T19:32:35.852Z,17.59
2022-08-20T19:37:50.945Z,17.45
2022-08-20T19:42:59.366Z,17.61
2022-08-20T19:48:15.271Z,17.25
2022-08-20T19:53:30.702Z,17.23
2022-08-20T19:58:37.142Z,17.36
2022-08-20T20:03:40.885Z,16.97
2022-08-20T20:08:53.667Z,17.00
2022-08-20T20:14:06.878Z,16.76
2022-08-20T20:19:26.276Z,16.87
2022-08-20T20:24:40.609Z,16.54
2022-08-20T20:29:46.276Z,16.73
2022-08-20T20:34:56.163Z,16.33
2022-08-20T20:40:07.911Z,16.40
2022-08-20T20:45:33.478Z,16.36
2022-08-20T20:50:38.882Z,16.01
2022-08-20T20:55:54.135Z,16.26
2022-08-20T21:00:59.383Z,16.09
2022-08-20T21:06:03.633Z,16.03
2022-08-20T21:11:08.081Z,15.83
2022-08-20T21:16:13.638Z,15.63
2022-08-20T21:21:17.922Z,15.85
2022-08-20T21:26:22.354Z,15.75
2022-08-20T21:31:33.966Z,15.73
2022-08-20T21:36:37.911Z,15.76
2022-08-20T21:41:43.036Z,15.68
2022-08-20T21:46:48.764Z,15.74
2022-08-20T21:51:53.045Z,15.70
2022-08-20T21:57:03.286Z,15.67
2022-08-20T22:02:08.612Z,15.57
2022-08-20T22:07:13.791Z,15.58
2022-08-20T22:12:21.473Z,15.41
2022-08-20T22:17:27.603Z,15.51
2022-08-20T22:22:32.010Z,15.54
2022-08-20T22:27:35.909Z,15.53
2022-08-20T22:32:52.063Z,15.68
2022-08-20T22:37:56.210Z,15.59
2022-08-20T22:42:59.976Z,15.54
2022-08-20T22:48:08.343Z,15.50
2022-08-20T22:53:12.818Z,15.43
2022-08-20T22:58:16.853Z,15.09
2022-08-20T23:03:29.195Z,15.19
2022-08-20T23:08:45.075Z,15.24
2022-08-20T23:13:48.906Z,15.09
2022-08-20T23:18:54.118Z,15.24
2022-08-20T23:23:57.780Z,15.03
2022-08-20T23:29:01.628Z,15.15
2022-08-20T23:34:06.864Z,14.89
2022-08-20T23:39:11.166Z,14.80
2022-08-20T23:44:25.199Z,15.01
2022-08-20T23:49:33.442Z,14.92
2022-08-20T23:54:37.213Z,14.76
2022-08-20T23:59:40.867Z,14.97
